sensor_id;sensor_type;location;lat;lon;timestamp;pressure;altitude;pressure_sealevel;temperature;humidity
29549;BME280;16487;53.094;8.800;2023-03-23T00:00:03;100531.53;;;10.87;100.00
29549;BME280;16487;53.094;8.800;2023-03-23T00:02:36;100570.88;;;10.89;100.00
29549;BME280;16487;53.094;8.800;2023-03-23T00:05:03;100586.03;;;10.88;100.00
29549;BME280;16487;53.094;8.800;2023-03-23T00:07:29;100618.25;;;10.89;100.00
29549;BME280;16487;53.094;8.800;2023-03-23T00:09:56;100637.47;;;10.87;100.00
29549;BME280;16487;53.094;8.800;2023-03-23T00:12:23;100672.94;;;10.87;100.00
29549;BME280;16487;53.094;8.800;2023-03-23T00:14:52;100725.13;;;10.86;100.00
29549;BME280;16487;53.094;8.800;2023-03-23T00:17:18;100741.38;;;10.88;100.00
29549;BME280;16487;53.094;8.800;2023-03-23T00:19:45;100777.88;;;10.93;100.00
29549;BME280;16487;53.094;8.800;2023-03-23T00:22:12;100803.06;;;10.90;100.00
29549;BME280;16487;53.094;8.800;2023-03-23T00:24:38;100791.13;;;10.89;100.00
29549;BME280;16487;53.094;8.800;2023-03-23T00:27:04;100836.53;;;10.90;100.00
29549;BME280;16487;53.094;8.800;2023-03-23T00:29:31;100861.63;;;10.90;100.00
29549;BME280;16487;53.094;8.800;2023-03-23T00:31:58;100880.69;;;10.91;100.00
29549;BME280;16487;53.094;8.800;2023-03-23T00:34:24;100905.03;;;10.91;100.00
29549;BME280;16487;53.094;8.800;2023-03-23T00:36:52;100927.34;;;10.91;100.00
29549;BME280;16487;53.094;8.800;2023-03-23T00:39:19;100946.84;;;10.91;100.00
29549;BME280;16487;53.094;8.800;2023-03-23T00:41:47;100968.72;;;10.92;100.00
29549;BME280;16487;53.094;8.800;2023-03-23T00:44:14;100978.19;;;10.95;100.00
29549;BME280;16487;53.094;8.800;2023-03-23T00:46:40;100983.78;;;10.95;100.00
29549;BME280;16487;53.094;8.800;2023-03-23T00:49:09;100996.06;;;10.97;100.00
29549;BME280;16487;53.094;8.800;2023-03-23T00:51:35;101013.25;;;10.96;100.00
29549;BME280;16487;53.094;8.800;2023-03-23T00:54:01;101010.00;;;10.97;100.00
29549;BME280;16487;53.094;8.800;2023-03-23T00:56:27;101008.44;;;10.96;100.00
29549;BME280;16487;53.094;8.800;2023-03-23T00:58:54;101015.59;;;10.97;100.00
29549;BME280;16487;53.094;8.800;2023-03-23T01:01:20;101001.47;;;11.04;100.00
29549;BME280;16487;53.094;8.800;2023-03-23T01:03:46;101001.19;;;10.99;100.00
29549;BME280;16487;53.094;8.800;2023-03-23T01:06:14;100986.72;;;11.04;100.00
29549;BME280;16487;53.094;8.800;2023-03-23T01:08:43;100955.59;;;11.05;100.00
29549;BME280;16487;53.094;8.800;2023-03-23T01:11:09;100941.19;;;11.07;100.00
29549;BME280;16487;53.094;8.800;2023-03-23T01:13:35;100942.00;;;11.07;100.00
29549;BME280;16487;53.094;8.800;2023-03-23T01:16:01;100903.75;;;11.08;100.00
29549;BME280;16487;53.094;8.800;2023-03-23T01:18:28;100887.44;;;11.06;100.00
29549;BME280;16487;53.094;8.800;2023-03-23T01:20:54;100868.69;;;11.07;100.00
29549;BME280;16487;53.094;8.800;2023-03-23T01:23:23;100855.53;;;11.07;100.00
29549;BME280;16487;53.094;8.800;2023-03-23T01:25:49;100837.25;;;11.06;100.00
29549;BME280;16487;53.094;8.800;2023-03-23T01:28:16;100842.47;;;11.04;100.00
29549;BME280;16487;53.094;8.800;2023-03-23T01:30:42;100848.50;;;11.03;100.00
29549;BME280;16487;53.094;8.800;2023-03-23T01:33:08;100853.63;;;11.04;100.00
29549;BME280;16487;53.094;8.800;2023-03-23T01:35:37;100839.69;;;11.04;100.00
29549;BME280;16487;53.094;8.800;2023-03-23T01:38:03;100839.78;;;11.01;100.00
29549;BME280;16487;53.094;8.800;2023-03-23T01:40:31;100845.81;;;10.99;100.00
29549;BME280;16487;53.094;8.800;2023-03-23T01:42:57;100851.41;;;10.99;100.00
29549;BME280;16487;53.094;8.800;2023-03-23T01:45:28;100884.06;;;10.99;100.00
29549;BME280;16487;53.094;8.800;2023-03-23T01:48:08;100912.75;;;10.99;100.00
29549;BME280;16487;53.094;8.800;2023-03-23T01:50:39;100914.31;;;11.00;100.00
29549;BME280;16487;53.094;8.800;2023-03-23T01:53:08;100922.31;;;10.98;100.00
29549;BME280;16487;53.094;8.800;2023-03-23T01:55:39;100956.25;;;10.97;100.00
29549;BME280;16487;53.094;8.800;2023-03-23T01:58:06;100959.72;;;11.01;100.00
29549;BME280;16487;53.094;8.800;2023-03-23T02:00:34;100985.06;;;11.06;100.00
29549;BME280;16487;53.094;8.800;2023-03-23T02:03:01;100957.84;;;11.10;100.00
29549;BME280;16487;53.094;8.800;2023-03-23T02:05:33;100951.59;;;11.06;100.00
29549;BME280;16487;53.094;8.800;2023-03-23T02:08:10;100914.09;;;11.07;100.00
29549;BME280;16487;53.094;8.800;2023-03-23T02:10:39;100922.81;;;11.09;100.00
29549;BME280;16487;53.094;8.800;2023-03-23T02:13:09;100900.41;;;11.13;100.00
29549;BME280;16487;53.094;8.800;2023-03-23T02:15:46;100842.47;;;11.17;100.00
29549;BME280;16487;53.094;8.800;2023-03-23T02:18:22;100804.66;;;11.16;100.00
29549;BME280;16487;53.094;8.800;2023-03-23T02:21:13;100747.31;;;11.15;100.00
29549;BME280;16487;53.094;8.800;2023-03-23T02:23:52;100713.06;;;11.14;100.00
29549;BME280;16487;53.094;8.800;2023-03-23T02:26:35;100647.03;;;11.11;100.00
29549;BME280;16487;53.094;8.800;2023-03-23T02:32:34;100561.19;;;11.15;100.00
29549;BME280;16487;53.094;8.800;2023-03-23T02:35:08;100523.41;;;11.14;100.00
29549;BME280;16487;53.094;8.800;2023-03-23T02:37:42;100520.28;;;11.12;100.00
29549;BME280;16487;53.094;8.800;2023-03-23T02:40:14;100486.81;;;11.12;100.00
29549;BME280;16487;53.094;8.800;2023-03-23T02:42:43;100480.31;;;11.15;100.00
29549;BME280;16487;53.094;8.800;2023-03-23T02:45:13;100458.00;;;11.15;100.00
29549;BME280;16487;53.094;8.800;2023-03-23T02:47:41;100421.41;;;11.13;100.00
29549;BME280;16487;53.094;8.800;2023-03-23T02:50:12;100382.06;;;11.11;100.00
29549;BME280;16487;53.094;8.800;2023-03-23T02:52:40;100360.53;;;11.12;100.00
29549;BME280;16487;53.094;8.800;2023-03-23T02:55:08;100324.72;;;11.10;100.00
29549;BME280;16487;53.094;8.800;2023-03-23T02:57:36;100318.38;;;11.10;100.00
29549;BME280;16487;53.094;8.800;2023-03-23T03:00:04;100270.19;;;11.09;100.00
29549;BME280;16487;53.094;8.800;2023-03-23T03:02:33;100288.94;;;11.09;100.00
29549;BME280;16487;53.094;8.800;2023-03-23T03:05:06;100279.03;;;11.08;100.00
29549;BME280;16487;53.094;8.800;2023-03-23T03:07:46;100256.56;;;11.11;100.00
29549;BME280;16487;53.094;8.800;2023-03-23T03:10:22;100218.00;;;11.19;100.00
29549;BME280;16487;53.094;8.800;2023-03-23T03:12:55;100168.91;;;11.21;100.00
29549;BME280;16487;53.094;8.800;2023-03-23T03:15:27;100128.59;;;11.22;100.00
29549;BME280;16487;53.094;8.800;2023-03-23T03:18:02;100087.69;;;11.19;100.00
29549;BME280;16487;53.094;8.800;2023-03-23T03:20:32;100039.19;;;11.26;100.00
29549;BME280;16487;53.094;8.800;2023-03-23T03:23:02;100020.28;;;11.21;100.00
29549;BME280;16487;53.094;8.800;2023-03-23T03:25:31;99991.63;;;11.20;100.00
29549;BME280;16487;53.094;8.800;2023-03-23T03:27:58;99989.78;;;11.26;100.00
29549;BME280;16487;53.094;8.800;2023-03-23T03:30:45;99968.72;;;11.25;100.00
29549;BME280;16487;53.094;8.800;2023-03-23T03:33:13;99958.16;;;11.29;100.00
29549;BME280;16487;53.094;8.800;2023-03-23T03:35:40;99934.28;;;11.28;100.00
29549;BME280;16487;53.094;8.800;2023-03-23T03:38:11;99884.72;;;11.23;100.00
29549;BME280;16487;53.094;8.800;2023-03-23T03:40:38;99893.03;;;11.32;100.00
29549;BME280;16487;53.094;8.800;2023-03-23T03:43:05;99878.81;;;11.30;100.00
29549;BME280;16487;53.094;8.800;2023-03-23T03:45:32;99880.19;;;11.35;100.00
29549;BME280;16487;53.094;8.800;2023-03-23T03:47:58;99855.72;;;11.30;100.00
29549;BME280;16487;53.094;8.800;2023-03-23T03:50:25;99856.50;;;11.30;100.00
29549;BME280;16487;53.094;8.800;2023-03-23T03:52:51;99844.72;;;11.26;100.00
29549;BME280;16487;53.094;8.800;2023-03-23T03:55:19;99839.44;;;11.37;100.00
29549;BME280;16487;53.094;8.800;2023-03-23T03:57:47;99832.28;;;11.36;100.00
29549;BME280;16487;53.094;8.800;2023-03-23T04:00:27;99798.81;;;11.36;100.00
29549;BME280;16487;53.094;8.800;2023-03-23T04:02:53;99801.31;;;11.34;100.00
29549;BME280;16487;53.094;8.800;2023-03-23T04:05:28;99786.59;;;11.34;100.00
29549;BME280;16487;53.094;8.800;2023-03-23T04:07:55;99801.00;;;11.32;100.00
29549;BME280;16487;53.094;8.800;2023-03-23T04:10:22;99781.31;;;11.36;100.00
29549;BME280;16487;53.094;8.800;2023-03-23T04:12:53;99753.13;;;11.34;100.00
29549;BME280;16487;53.094;8.800;2023-03-23T04:15:55;99727.38;;;11.39;100.00
29549;BME280;16487;53.094;8.800;2023-03-23T04:18:22;99728.78;;;11.34;100.00
29549;BME280;16487;53.094;8.800;2023-03-23T04:20:49;99701.31;;;11.42;100.00
29549;BME280;16487;53.094;8.800;2023-03-23T04:23:20;99704.59;;;11.40;100.00
29549;BME280;16487;53.094;8.800;2023-03-23T04:25:49;99700.53;;;11.41;100.00
29549;BME280;16487;53.094;8.800;2023-03-23T04:28:16;99682.25;;;11.40;100.00
29549;BME280;16487;53.094;8.800;2023-03-23T04:30:55;99678.22;;;11.41;100.00
29549;BME280;16487;53.094;8.800;2023-03-23T04:33:23;99674.78;;;11.46;100.00
29549;BME280;16487;53.094;8.800;2023-03-23T04:35:49;99655.78;;;11.60;100.00
29549;BME280;16487;53.094;8.800;2023-03-23T04:38:28;99636.38;;;11.65;100.00
29549;BME280;16487;53.094;8.800;2023-03-23T04:41:01;99623.50;;;11.68;100.00
29549;BME280;16487;53.094;8.800;2023-03-23T04:43:43;99587.50;;;11.70;100.00
29549;BME280;16487;53.094;8.800;2023-03-23T04:46:22;99566.88;;;11.67;100.00
29549;BME280;16487;53.094;8.800;2023-03-23T04:48:51;99552.47;;;11.69;100.00
29549;BME280;16487;53.094;8.800;2023-03-23T04:51:23;99517.53;;;11.73;100.00
29549;BME280;16487;53.094;8.800;2023-03-23T04:53:51;99495.09;;;11.68;100.00
29549;BME280;16487;53.094;8.800;2023-03-23T04:56:19;99478.94;;;11.72;100.00
29549;BME280;16487;53.094;8.800;2023-03-23T04:58:46;99467.19;;;11.68;100.00
29549;BME280;16487;53.094;8.800;2023-03-23T05:01:26;99453.72;;;11.66;100.00
29549;BME280;16487;53.094;8.800;2023-03-23T05:04:12;99448.75;;;11.70;100.00
29549;BME280;16487;53.094;8.800;2023-03-23T05:06:38;99441.78;;;11.80;100.00
29549;BME280;16487;53.094;8.800;2023-03-23T05:09:12;99428.31;;;11.79;100.00
29549;BME280;16487;53.094;8.800;2023-03-23T05:11:40;99425.03;;;11.80;100.00
29549;BME280;16487;53.094;8.800;2023-03-23T05:14:06;99407.22;;;11.78;100.00
29549;BME280;16487;53.094;8.800;2023-03-23T05:16:32;99397.34;;;11.77;100.00
29549;BME280;16487;53.094;8.800;2023-03-23T05:19:00;99391.94;;;11.73;100.00
29549;BME280;16487;53.094;8.800;2023-03-23T05:21:28;99385.38;;;11.76;100.00
29549;BME280;16487;53.094;8.800;2023-03-23T05:23:57;99393.38;;;11.83;100.00
29549;BME280;16487;53.094;8.800;2023-03-23T05:26:23;99375.38;;;11.84;100.00
29549;BME280;16487;53.094;8.800;2023-03-23T05:28:54;99369.16;;;11.95;100.00
29549;BME280;16487;53.094;8.800;2023-03-23T05:31:24;99355.91;;;11.90;100.00
29549;BME280;16487;53.094;8.800;2023-03-23T05:33:51;99343.31;;;11.80;100.00
29549;BME280;16487;53.094;8.800;2023-03-23T05:36:36;99344.63;;;11.64;100.00
29549;BME280;16487;53.094;8.800;2023-03-23T05:39:08;99346.84;;;11.45;100.00
29549;BME280;16487;53.094;8.800;2023-03-23T05:42:00;99354.91;;;11.43;100.00
29549;BME280;16487;53.094;8.800;2023-03-23T05:44:36;99361.06;;;11.47;100.00
29549;BME280;16487;53.094;8.800;2023-03-23T05:47:03;99377.81;;;11.47;100.00
29549;BME280;16487;53.094;8.800;2023-03-23T05:49:30;99388.88;;;11.57;100.00
29549;BME280;16487;53.094;8.800;2023-03-23T05:51:56;99376.75;;;11.60;100.00
29549;BME280;16487;53.094;8.800;2023-03-23T05:54:23;99375.97;;;11.59;100.00
29549;BME280;16487;53.094;8.800;2023-03-23T05:56:50;99390.69;;;11.60;100.00
29549;BME280;16487;53.094;8.800;2023-03-23T05:59:33;99388.69;;;11.60;100.00
29549;BME280;16487;53.094;8.800;2023-03-23T06:02:03;99379.53;;;11.60;100.00
29549;BME280;16487;53.094;8.800;2023-03-23T06:04:29;99388.44;;;11.64;100.00
29549;BME280;16487;53.094;8.800;2023-03-23T06:07:13;99379.16;;;11.67;100.00
29549;BME280;16487;53.094;8.800;2023-03-23T06:09:42;99372.03;;;11.66;100.00
29549;BME280;16487;53.094;8.800;2023-03-23T06:12:23;99368.50;;;11.65;100.00
29549;BME280;16487;53.094;8.800;2023-03-23T06:15:10;99362.13;;;11.65;100.00
29549;BME280;16487;53.094;8.800;2023-03-23T06:17:58;99356.84;;;11.67;100.00
29549;BME280;16487;53.094;8.800;2023-03-23T06:20:29;99356.72;;;11.76;100.00
29549;BME280;16487;53.094;8.800;2023-03-23T06:22:57;99346.13;;;11.80;100.00
29549;BME280;16487;53.094;8.800;2023-03-23T06:25:29;99344.88;;;11.81;100.00
29549;BME280;16487;53.094;8.800;2023-03-23T06:27:57;99332.53;;;11.87;100.00
29549;BME280;16487;53.094;8.800;2023-03-23T06:30:24;99335.13;;;11.91;100.00
29549;BME280;16487;53.094;8.800;2023-03-23T06:32:50;99314.31;;;11.92;100.00
29549;BME280;16487;53.094;8.800;2023-03-23T06:35:28;99312.91;;;12.02;100.00
29549;BME280;16487;53.094;8.800;2023-03-23T06:37:55;99306.66;;;12.07;100.00
29549;BME280;16487;53.094;8.800;2023-03-23T06:40:31;99288.63;;;12.08;100.00
29549;BME280;16487;53.094;8.800;2023-03-23T06:42:58;99276.63;;;12.22;100.00
29549;BME280;16487;53.094;8.800;2023-03-23T06:45:43;99270.47;;;12.18;100.00
29549;BME280;16487;53.094;8.800;2023-03-23T06:48:28;99264.47;;;12.25;100.00
29549;BME280;16487;53.094;8.800;2023-03-23T06:50:55;99258.94;;;12.30;100.00
29549;BME280;16487;53.094;8.800;2023-03-23T06:53:24;99254.84;;;12.26;100.00
29549;BME280;16487;53.094;8.800;2023-03-23T06:55:53;99254.16;;;12.31;100.00
29549;BME280;16487;53.094;8.800;2023-03-23T06:58:19;99263.06;;;12.35;100.00
29549;BME280;16487;53.094;8.800;2023-03-23T07:00:45;99251.34;;;12.31;100.00
29549;BME280;16487;53.094;8.800;2023-03-23T07:03:14;99261.25;;;12.32;100.00
29549;BME280;16487;53.094;8.800;2023-03-23T07:05:40;99261.53;;;12.34;100.00
29549;BME280;16487;53.094;8.800;2023-03-23T07:08:10;99268.66;;;12.35;100.00
29549;BME280;16487;53.094;8.800;2023-03-23T07:10:41;99289.88;;;12.27;100.00
29549;BME280;16487;53.094;8.800;2023-03-23T07:13:09;99304.63;;;12.07;100.00
29549;BME280;16487;53.094;8.800;2023-03-23T07:15:46;99350.47;;;12.01;100.00
29549;BME280;16487;53.094;8.800;2023-03-23T07:18:12;99355.50;;;11.97;100.00
29549;BME280;16487;53.094;8.800;2023-03-23T07:20:47;99378.03;;;11.93;100.00
29549;BME280;16487;53.094;8.800;2023-03-23T07:23:16;99393.84;;;11.82;100.00
29549;BME280;16487;53.094;8.800;2023-03-23T07:26:04;99434.28;;;11.72;100.00
29549;BME280;16487;53.094;8.800;2023-03-23T07:28:37;99489.41;;;11.62;100.00
29549;BME280;16487;53.094;8.800;2023-03-23T07:31:18;99561.13;;;11.32;100.00
29549;BME280;16487;53.094;8.800;2023-03-23T07:33:45;99924.41;;;10.91;100.00
29549;BME280;16487;53.094;8.800;2023-03-23T07:36:12;100440.41;;;10.84;100.00
29549;BME280;16487;53.094;8.800;2023-03-23T07:38:40;100419.09;;;10.90;100.00
29549;BME280;16487;53.094;8.800;2023-03-23T07:41:06;100196.72;;;10.94;100.00
29549;BME280;16487;53.094;8.800;2023-03-23T07:43:32;99997.06;;;10.97;100.00
29549;BME280;16487;53.094;8.800;2023-03-23T07:46:20;99892.53;;;10.83;100.00
29549;BME280;16487;53.094;8.800;2023-03-23T07:48:57;99839.09;;;10.76;100.00
29549;BME280;16487;53.094;8.800;2023-03-23T07:51:30;99800.72;;;10.71;100.00
29549;BME280;16487;53.094;8.800;2023-03-23T07:53:58;99779.19;;;10.71;100.00
29549;BME280;16487;53.094;8.800;2023-03-23T07:56:47;99777.34;;;10.68;100.00
29549;BME280;16487;53.094;8.800;2023-03-23T07:59:17;99789.09;;;10.72;100.00
29549;BME280;16487;53.094;8.800;2023-03-23T08:01:44;99781.84;;;10.75;100.00
29549;BME280;16487;53.094;8.800;2023-03-23T08:04:33;99755.16;;;10.83;100.00
29549;BME280;16487;53.094;8.800;2023-03-23T08:07:18;99744.63;;;10.87;100.00
29549;BME280;16487;53.094;8.800;2023-03-23T08:09:54;99737.34;;;10.89;100.00
29549;BME280;16487;53.094;8.800;2023-03-23T08:12:33;99742.00;;;10.92;100.00
29549;BME280;16487;53.094;8.800;2023-03-23T08:15:34;99749.44;;;10.86;100.00
29549;BME280;16487;53.094;8.800;2023-03-23T08:18:14;99750.03;;;10.90;100.00
29549;BME280;16487;53.094;8.800;2023-03-23T08:20:40;99771.56;;;10.90;100.00
29549;BME280;16487;53.094;8.800;2023-03-23T08:23:15;99770.34;;;10.91;100.00
29549;BME280;16487;53.094;8.800;2023-03-23T08:26:01;99768.31;;;10.91;100.00
29549;BME280;16487;53.094;8.800;2023-03-23T08:28:46;99770.78;;;10.89;100.00
29549;BME280;16487;53.094;8.800;2023-03-23T08:31:21;99770.78;;;10.89;100.00
29549;BME280;16487;53.094;8.800;2023-03-23T08:34:00;99778.41;;;10.89;100.00
29549;BME280;16487;53.094;8.800;2023-03-23T08:36:36;99801.16;;;10.87;100.00
29549;BME280;16487;53.094;8.800;2023-03-23T08:39:12;99792.75;;;10.96;100.00
29549;BME280;16487;53.094;8.800;2023-03-23T08:42:06;99794.78;;;10.96;100.00
29549;BME280;16487;53.094;8.800;2023-03-23T08:44:52;99793.38;;;11.00;100.00
29549;BME280;16487;53.094;8.800;2023-03-23T08:47:45;99795.22;;;11.03;100.00
29549;BME280;16487;53.094;8.800;2023-03-23T08:50:35;99776.16;;;11.11;100.00
29549;BME280;16487;53.094;8.800;2023-03-23T08:53:24;99774.91;;;11.12;100.00
29549;BME280;16487;53.094;8.800;2023-03-23T08:56:05;99761.09;;;11.17;100.00
29549;BME280;16487;53.094;8.800;2023-03-23T08:59:02;99757.47;;;11.26;100.00
29549;BME280;16487;53.094;8.800;2023-03-23T09:01:52;99746.19;;;11.20;100.00
29549;BME280;16487;53.094;8.800;2023-03-23T09:04:43;99741.84;;;11.28;100.00
29549;BME280;16487;53.094;8.800;2023-03-23T09:07:20;99738.13;;;11.22;100.00
29549;BME280;16487;53.094;8.800;2023-03-23T09:09:47;99741.22;;;11.24;100.00
29549;BME280;16487;53.094;8.800;2023-03-23T09:12:13;99745.63;;;11.16;100.00
29549;BME280;16487;53.094;8.800;2023-03-23T09:14:41;99744.94;;;11.30;100.00
29549;BME280;16487;53.094;8.800;2023-03-23T09:17:07;99740.75;;;11.26;100.00
29549;BME280;16487;53.094;8.800;2023-03-23T09:19:34;99732.22;;;11.29;100.00
29549;BME280;16487;53.094;8.800;2023-03-23T09:22:01;99735.56;;;11.42;100.00
29549;BME280;16487;53.094;8.800;2023-03-23T09:24:27;99726.53;;;11.47;100.00
29549;BME280;16487;53.094;8.800;2023-03-23T09:26:53;99738.66;;;11.44;100.00
29549;BME280;16487;53.094;8.800;2023-03-23T09:29:20;99737.06;;;11.52;100.00
29549;BME280;16487;53.094;8.800;2023-03-23T09:31:47;99727.28;;;11.48;100.00
29549;BME280;16487;53.094;8.800;2023-03-23T09:34:14;99738.53;;;11.63;100.00
29549;BME280;16487;53.094;8.800;2023-03-23T09:36:41;99711.47;;;11.78;100.00
29549;BME280;16487;53.094;8.800;2023-03-23T09:39:08;99683.72;;;11.98;100.00
29549;BME280;16487;53.094;8.800;2023-03-23T09:41:47;99669.69;;;12.21;100.00
29549;BME280;16487;53.094;8.800;2023-03-23T09:44:23;99640.53;;;12.22;100.00
29549;BME280;16487;53.094;8.800;2023-03-23T09:46:59;99622.22;;;12.36;100.00
29549;BME280;16487;53.094;8.800;2023-03-23T09:49:32;99598.59;;;12.37;100.00
29549;BME280;16487;53.094;8.800;2023-03-23T09:52:02;99583.78;;;12.31;100.00
29549;BME280;16487;53.094;8.800;2023-03-23T09:54:33;99561.88;;;12.44;100.00
29549;BME280;16487;53.094;8.800;2023-03-23T09:57:01;99543.34;;;12.61;100.00
29549;BME280;16487;53.094;8.800;2023-03-23T09:59:31;99508.81;;;12.64;100.00
29549;BME280;16487;53.094;8.800;2023-03-23T10:02:12;99468.28;;;12.94;100.00
29549;BME280;16487;53.094;8.800;2023-03-23T10:04:44;99423.28;;;12.92;100.00
29549;BME280;16487;53.094;8.800;2023-03-23T10:07:13;99413.50;;;13.02;100.00
29549;BME280;16487;53.094;8.800;2023-03-23T10:09:40;99393.97;;;13.08;100.00
29549;BME280;16487;53.094;8.800;2023-03-23T10:12:13;99380.34;;;12.95;100.00
29549;BME280;16487;53.094;8.800;2023-03-23T10:14:52;99371.06;;;13.04;100.00
29549;BME280;16487;53.094;8.800;2023-03-23T10:17:27;99358.69;;;13.10;100.00
29549;BME280;16487;53.094;8.800;2023-03-23T10:19:59;99330.16;;;13.37;100.00
29549;BME280;16487;53.094;8.800;2023-03-23T10:22:32;99297.75;;;13.56;100.00
29549;BME280;16487;53.094;8.800;2023-03-23T10:25:04;99281.38;;;13.13;100.00
29549;BME280;16487;53.094;8.800;2023-03-23T10:27:33;99292.34;;;13.16;100.00
29549;BME280;16487;53.094;8.800;2023-03-23T10:30:13;99279.66;;;12.95;100.00
29549;BME280;16487;53.094;8.800;2023-03-23T10:32:45;99281.94;;;12.91;100.00
29549;BME280;16487;53.094;8.800;2023-03-23T10:35:16;99297.59;;;12.83;100.00
29549;BME280;16487;53.094;8.800;2023-03-23T10:37:47;99292.53;;;13.07;100.00
29549;BME280;16487;53.094;8.800;2023-03-23T10:40:17;99274.81;;;13.52;100.00
29549;BME280;16487;53.094;8.800;2023-03-23T10:42:45;99242.34;;;13.71;100.00
29549;BME280;16487;53.094;8.800;2023-03-23T10:45:16;99246.91;;;13.63;100.00
29549;BME280;16487;53.094;8.800;2023-03-23T10:47:46;99240.06;;;13.33;100.00
29549;BME280;16487;53.094;8.800;2023-03-23T10:50:16;99238.00;;;13.23;100.00
29549;BME280;16487;53.094;8.800;2023-03-23T10:52:44;99246.84;;;13.21;100.00
29549;BME280;16487;53.094;8.800;2023-03-23T10:55:12;99243.59;;;13.28;100.00
29549;BME280;16487;53.094;8.800;2023-03-23T10:57:41;99245.38;;;13.62;100.00
29549;BME280;16487;53.094;8.800;2023-03-23T11:00:17;99208.31;;;13.36;100.00
29549;BME280;16487;53.094;8.800;2023-03-23T11:02:56;99208.94;;;13.57;100.00
29549;BME280;16487;53.094;8.800;2023-03-23T11:05:25;99200.25;;;13.49;100.00
29549;BME280;16487;53.094;8.800;2023-03-23T11:07:54;99210.31;;;13.30;100.00
29549;BME280;16487;53.094;8.800;2023-03-23T11:10:23;99198.84;;;13.28;100.00
29549;BME280;16487;53.094;8.800;2023-03-23T11:12:50;99198.16;;;13.39;100.00
29549;BME280;16487;53.094;8.800;2023-03-23T11:15:25;99184.44;;;13.41;100.00
29549;BME280;16487;53.094;8.800;2023-03-23T11:17:58;99181.41;;;13.44;100.00
29549;BME280;16487;53.094;8.800;2023-03-23T11:20:26;99191.25;;;13.34;100.00
29549;BME280;16487;53.094;8.800;2023-03-23T11:22:53;99196.28;;;13.67;100.00
29549;BME280;16487;53.094;8.800;2023-03-23T11:25:19;99191.44;;;13.67;100.00
29549;BME280;16487;53.094;8.800;2023-03-23T11:27:46;99196.09;;;13.82;100.00
29549;BME280;16487;53.094;8.800;2023-03-23T11:30:22;99201.31;;;13.57;100.00
29549;BME280;16487;53.094;8.800;2023-03-23T11:32:49;99200.44;;;13.40;100.00
29549;BME280;16487;53.094;8.800;2023-03-23T11:35:19;99208.84;;;13.40;100.00
29549;BME280;16487;53.094;8.800;2023-03-23T11:37:48;99209.69;;;13.52;100.00
29549;BME280;16487;53.094;8.800;2023-03-23T11:40:17;99203.28;;;14.05;100.00
29549;BME280;16487;53.094;8.800;2023-03-23T11:42:45;99180.69;;;14.25;100.00
29549;BME280;16487;53.094;8.800;2023-03-23T11:45:18;99183.22;;;14.17;100.00
29549;BME280;16487;53.094;8.800;2023-03-23T11:47:53;99172.13;;;14.78;100.00
29549;BME280;16487;53.094;8.800;2023-03-23T11:50:24;99170.28;;;14.31;100.00
29549;BME280;16487;53.094;8.800;2023-03-23T11:52:55;99169.28;;;14.67;100.00
29549;BME280;16487;53.094;8.800;2023-03-23T11:55:28;99146.72;;;15.61;100.00
29549;BME280;16487;53.094;8.800;2023-03-23T11:58:00;99146.63;;;14.87;100.00
29549;BME280;16487;53.094;8.800;2023-03-23T12:00:28;99144.56;;;14.43;100.00
29549;BME280;16487;53.094;8.800;2023-03-23T12:03:25;99153.94;;;14.24;100.00
29549;BME280;16487;53.094;8.800;2023-03-23T12:06:01;99131.56;;;14.79;100.00
29549;BME280;16487;53.094;8.800;2023-03-23T12:08:50;99143.53;;;15.02;100.00
29549;BME280;16487;53.094;8.800;2023-03-23T12:11:24;99151.22;;;14.62;100.00
29549;BME280;16487;53.094;8.800;2023-03-23T12:13:59;99134.59;;;14.26;100.00
29549;BME280;16487;53.094;8.800;2023-03-23T12:16:41;99134.66;;;14.70;100.00
29549;BME280;16487;53.094;8.800;2023-03-23T12:19:16;99136.91;;;14.88;100.00
29549;BME280;16487;53.094;8.800;2023-03-23T12:22:06;99134.53;;;15.36;100.00
29549;BME280;16487;53.094;8.800;2023-03-23T12:24:45;99124.66;;;14.91;100.00
29549;BME280;16487;53.094;8.800;2023-03-23T12:27:21;99130.78;;;14.95;100.00
29549;BME280;16487;53.094;8.800;2023-03-23T12:30:02;99121.84;;;14.91;100.00
29549;BME280;16487;53.094;8.800;2023-03-23T12:32:44;99140.66;;;15.40;100.00
29549;BME280;16487;53.094;8.800;2023-03-23T12:35:25;99157.06;;;14.75;100.00
29549;BME280;16487;53.094;8.800;2023-03-23T12:38:08;99141.44;;;15.30;100.00
29549;BME280;16487;53.094;8.800;2023-03-23T12:40:46;99156.97;;;15.58;100.00
29549;BME280;16487;53.094;8.800;2023-03-23T12:43:20;99174.38;;;15.13;100.00
29549;BME280;16487;53.094;8.800;2023-03-23T12:45:58;99159.34;;;14.77;100.00
29549;BME280;16487;53.094;8.800;2023-03-23T12:48:29;99169.22;;;15.50;100.00
29549;BME280;16487;53.094;8.800;2023-03-23T12:51:11;99162.22;;;16.71;100.00
29549;BME280;16487;53.094;8.800;2023-03-23T12:53:46;99184.53;;;16.58;100.00
29549;BME280;16487;53.094;8.800;2023-03-23T12:56:17;99171.97;;;16.24;100.00
29549;BME280;16487;53.094;8.800;2023-03-23T12:58:48;99192.91;;;15.65;100.00
29549;BME280;16487;53.094;8.800;2023-03-23T13:01:18;99180.19;;;16.16;100.00
29549;BME280;16487;53.094;8.800;2023-03-23T13:03:49;99183.41;;;15.79;100.00
29549;BME280;16487;53.094;8.800;2023-03-23T13:06:21;99185.34;;;16.88;100.00
29549;BME280;16487;53.094;8.800;2023-03-23T13:08:53;99225.84;;;15.70;100.00
29549;BME280;16487;53.094;8.800;2023-03-23T13:11:25;99191.84;;;16.31;100.00
29549;BME280;16487;53.094;8.800;2023-03-23T13:13:57;99221.19;;;16.47;100.00
29549;BME280;16487;53.094;8.800;2023-03-23T13:16:32;99215.59;;;16.36;100.00